METAR Data
IDs: Format: Raw Decoded Include TAF

Data at: 2207 UTC 25 Oct 2021

KBEA 252155Z AUTO 10006KT 10SM BKN038 BKN044 33/25 A2989 RMK AO2 T03310245
KBEA 252135Z AUTO 11007KT 10SM BKN038 33/25 A2989 RMK AO2 T03290250
KBEA 252115Z AUTO 11006KT 10SM CLR 32/25 A2989 RMK AO2 T03220249
KBEA 252055Z AUTO 10006KT 10SM CLR 33/25 A2990 RMK AO2 T03280249
KBEA 252035Z AUTO 09007KT 10SM SCT036 32/25 A2990 RMK AO2 T03240251
KBEA 252015Z AUTO 14006KT 10SM SCT032 33/25 A2990 RMK AO2 T03260247
KBEA 251955Z AUTO 15008KT 10SM SCT032 33/25 A2991 RMK AO2 T03260252
KBEA 251935Z AUTO 13006KT 10SM SCT030 31/25 A2992 RMK AO2 T03140250
KBEA 251915Z AUTO 11004KT 10SM BKN030 32/25 A2993 RMK AO2 T03200252
KBEA 251855Z AUTO 11004KT 10SM SCT030 31/26 A2993 RMK AO2 T03120259
KBEA 251835Z AUTO 15003KT 10SM BKN028 31/26 A2994 RMK AO2 T03110257
KBEA 251815Z AUTO 10006KT 10SM BKN026 31/26 A2995 RMK AO2 T03130259
KBEA 251755Z AUTO 00000KT 10SM BKN024 31/26 A2996 RMK AO2 T03130257 10315 20241
KBEA 251735Z AUTO 11004KT 10SM SCT022 31/26 A2996 RMK AO2 T03100258
KBEA 251715Z AUTO 14004KT 10SM SCT020 30/26 A2996 RMK AO2 T03020257
KBEA 251655Z AUTO 16005KT 10SM OVC020 30/26 A2997 RMK AO2 T03040256
KBEA 251635Z AUTO 20003KT 10SM BKN016 29/26 A2997 RMK AO2 T02860260
KBEA 251615Z AUTO 19006KT 10SM OVC014 28/26 A2997 RMK AO2 T02800258
KBEA 251555Z AUTO 20005KT 10SM BKN012 28/26 A2997 RMK AO2 T02800260
KBEA 251535Z AUTO 17005KT 10SM BKN010 27/26 A2997 RMK AO2 T02720261
KBEA 251515Z AUTO 20003KT 10SM OVC010 26/26 A2997 RMK AO2 T02580257
KBEA 251455Z AUTO 18005KT 10SM OVC008 25/25 A2997 RMK AO2 T02540254
KBEA 251435Z AUTO 21005KT 10SM OVC008 25/25 A2996 RMK AO2 T02450245
KBEA 251415Z AUTO 20005KT 10SM OVC008 24/24 A2996 RMK AO2 T02440244
KBEA 251355Z AUTO 19005KT 10SM OVC008 25/25 A2995 RMK AO2 T02450245
KBEA 251335Z AUTO 19005KT 10SM OVC008 24/24 A2994 RMK AO2 T02430243
KBEA 251315Z AUTO 18005KT 10SM BKN008 24/24 A2993 RMK AO2 T02430243
KBEA 251255Z AUTO 18004KT 10SM OVC008 25/25 A2992 RMK AO2 T02450245
KBEA 251235Z AUTO 19005KT 10SM OVC004 25/25 A2992 RMK AO2 T02450245
KBEA 251055Z AUTO 19004KT 10SM OVC006 25/25 A2990 RMK AO2 T02450245
KBEA 251035Z AUTO 19003KT 10SM OVC006 25/25 A2990 RMK AO2 T02450245
KBEA 251015Z AUTO 20003KT 10SM OVC006 24/24 A2990 RMK AO2 T02420242
KBEA 250955Z AUTO 19003KT 10SM OVC008 24/24 A2990 RMK AO2 T02420242
KBEA 250935Z AUTO 00000KT 10SM OVC008 24/24 A2990 RMK AO2 T02390239
KBEA 250915Z AUTO 21004KT 10SM BKN006 OVC010 24/24 A2990 RMK AO2 T02380238
KBEA 250855Z AUTO 00000KT 1 1/4SM BR OVC006 23/23 A2990 RMK AO2 VIS 1/2V4 T02340234
KBEA 250835Z AUTO 00000KT 1/2SM FG OVC006 23/23 A2990 RMK AO2 T02300230
KBEA 250755Z AUTO 00000KT M1/4SM FG OVC005 22/22 A2990 RMK AO2 T02200220
KBEA 250535Z AUTO 11003KT 1/4SM FG OVC001 23/23 A2990 RMK AO2 T02300230
KBEA 250455Z AUTO 09003KT 1/2SM FG VV005 22/22 A2990 RMK AO2 T02240224
KBEA 250415Z AUTO 08003KT 1/4SM FG VV002 23/23 A2989 RMK AO2 T02290229
KBEA 250355Z AUTO 00000KT 1/4SM FG VV002 23/23 A2988 RMK AO2 T02310231
KBEA 250335Z AUTO 00000KT 1 3/4SM BR VV007 24/24 A2987 RMK AO2 T02400240
KBEA 250315Z AUTO 00000KT 7SM CLR 24/24 A2987 RMK AO2 T02400240
KBEA 250255Z AUTO 14004KT 10SM CLR 24/24 A2986 RMK AO2 T02430243
KBEA 250235Z AUTO 13003KT 10SM CLR 25/25 A2985 RMK AO2 T02460246
KBEA 250215Z AUTO 13004KT 10SM CLR 25/25 A2985 RMK AO2 T02490249
KBEA 250155Z AUTO 12003KT 10SM CLR 25/25 A2984 RMK AO2 T02500250
KBEA 250135Z AUTO 14005KT 10SM CLR 25/25 A2982 RMK AO2 T02530250
KBEA 250115Z AUTO 15004KT 10SM CLR 26/25 A2982 RMK AO2 T02550247
KBEA 250055Z AUTO 15005KT 10SM CLR 26/25 A2981 RMK AO2 T02620245
KBEA 250035Z AUTO 14005KT 10SM CLR 27/24 A2980 RMK AO2 T02670243
KBEA 242355Z AUTO 14008KT 10SM CLR 29/25 A2979 RMK AO2 T02870247 10337 20287
KBEA 242335Z AUTO 14005KT 10SM CLR 30/25 A2979 RMK AO2 T02970251
KBEA 242315Z AUTO 14008KT 10SM CLR 31/25 A2978 RMK AO2 T03070251
KBEA 242255Z AUTO 13006KT 10SM CLR 32/25 A2979 RMK AO2 T03150251
KBEA 242235Z AUTO 13007KT 10SM CLR 32/25 A2980 RMK AO2 T03200248
KBEA 242215Z AUTO 13005KT 10SM CLR 32/24 A2980 RMK AO2 T03230244
KBEA 242155Z AUTO 15008KT 10SM SCT050 33/24 A2980 RMK AO2 T03270237
KBEA 242135Z AUTO 16008KT 10SM SCT046 BKN050 33/24 A2980 RMK AO2 T03310236
KBEA 242115Z AUTO 13005KT 10SM BKN044 BKN050 33/24 A2979 RMK AO2 T03320239
KBEA 242055Z AUTO 14004KT 5SM HZ SCT049 SCT060 33/24 A2979 RMK AO2 T03250235
KBEA 242035Z AUTO 11003KT 10SM SCT043 BKN060 32/24 A2980 RMK AO2 T03200235
KBEA 242015Z AUTO 14003KT 10SM BKN043 BKN050 33/24 A2980 RMK AO2 T03310237
KBEA 241955Z AUTO 00000KT 10SM SCT039 BKN050 32/24 A2980 RMK AO2 T03240240
KBEA 241935Z AUTO 16006KT 10SM SCT037 SCT048 32/24 A2981 RMK AO2 T03240241
KBEA 241915Z AUTO 19003KT 10SM SCT037 BKN045 32/24 A2982 RMK AO2 T03180241
KBEA 241855Z AUTO 19006KT 10SM SCT035 BKN045 32/24 A2982 RMK AO2 T03230241
KBEA 241835Z AUTO 20006KT 10SM SCT039 SCT049 32/25 A2983 RMK AO2 T03170247
KBEA 241815Z AUTO 17006KT 10SM SCT031 SCT041 SCT049 32/25 A2984 RMK AO2 T03170251
KBEA 241755Z AUTO 19007KT 10SM SCT029 SCT039 30/25 A2985 RMK AO2 T03020248 10310 20216
KBEA 241735Z AUTO 21006KT 10SM SCT025 SCT033 SCT039 31/25 A2986 RMK AO2 T03070253
KBEA 241715Z AUTO 19007KT 10SM SCT023 30/26 A2986 RMK AO2 T03010256
KBEA 241655Z AUTO 22008KT 10SM SCT023 SCT044 30/25 A2986 RMK AO2 T03010253
KBEA 241635Z AUTO 19010G15KT 10SM SCT018 SCT046 30/25 A2986 RMK AO2 T03010252
KBEA 241615Z AUTO 19008KT 10SM SCT013 SCT018 BKN023 30/26 A2987 RMK AO2 T02960261
KBEA 241555Z AUTO 16006KT 10SM BKN013 BKN022 26/26 A2987 RMK AO2 T02550255
KBEA 241535Z AUTO 16006KT 10SM SCT007 BKN013 BKN019 26/26 A2987 RMK AO2 T02560256
KBEA 241515Z AUTO 15003KT 10SM BKN003 BKN009 OVC025 25/25 A2987 RMK AO2 T02540254
KBEA 241455Z AUTO 00000KT 10SM OVC003 25/25 A2986 RMK AO2 T02510251
KBEA 241435Z AUTO 12003KT 1 1/4SM BR OVC003 25/25 A2985 RMK AO2 VIS 3/4V2 1/2 T02470247
KBEA 241415Z AUTO 12003KT 1/4SM FG OVC003 24/24 A2984 RMK AO2 T02400240
KBEA 241355Z AUTO 00000KT M1/4SM FG OVC003 23/23 A2984 RMK AO2 T02310231
KBEA 241335Z AUTO 00000KT 1/4SM FG OVC003 23/23 A2983 RMK AO2 T02250225
KBEA 241315Z AUTO 00000KT M1/4SM FG OVC003 22/22 A2983 RMK AO2 T02190219
KBEA 241255Z AUTO 09003KT M1/4SM FG OVC003 22/22 A2981 RMK AO2 T02180218
KBEA 241235Z AUTO 00000KT M1/4SM FG OVC003 22/22 A2981 RMK AO2 T02200220
KBEA 241215Z AUTO 00000KT 1/4SM FG OVC003 22/22 A2981 RMK AO2 T02180218
KBEA 241135Z AUTO 06003KT 1/4SM FG OVC003 21/21 A2980 RMK AO2 T02120212
KBEA 241115Z AUTO 00000KT M1/4SM FG OVC003 21/21 A2980 RMK AO2 T02110211